sensor_id;sensor_type;location;lat;lon;timestamp;temperature;humidity
6110;DHT22;3085;49.444;11.054;2023-05-31T00:01:05;17.40;76.60
6110;DHT22;3085;49.444;11.054;2023-05-31T00:03:34;17.30;76.80
6110;DHT22;3085;49.444;11.054;2023-05-31T00:06:01;17.30;77.30
6110;DHT22;3085;49.444;11.054;2023-05-31T00:08:30;17.40;77.10
6110;DHT22;3085;49.444;11.054;2023-05-31T00:10:57;17.30;76.70
6110;DHT22;3085;49.444;11.054;2023-05-31T00:13:24;17.40;76.80
6110;DHT22;3085;49.444;11.054;2023-05-31T00:15:51;17.40;76.60
6110;DHT22;3085;49.444;11.054;2023-05-31T00:18:18;17.50;77.10
6110;DHT22;3085;49.444;11.054;2023-05-31T00:20:46;17.40;77.10
6110;DHT22;3085;49.444;11.054;2023-05-31T00:23:13;17.30;76.70
6110;DHT22;3085;49.444;11.054;2023-05-31T00:25:40;17.30;76.50
6110;DHT22;3085;49.444;11.054;2023-05-31T00:28:07;17.20;76.40
6110;DHT22;3085;49.444;11.054;2023-05-31T00:30:34;17.30;76.50
6110;DHT22;3085;49.444;11.054;2023-05-31T00:33:01;17.20;76.20
6110;DHT22;3085;49.444;11.054;2023-05-31T00:35:29;17.20;76.30
6110;DHT22;3085;49.444;11.054;2023-05-31T00:37:57;17.10;76.30
6110;DHT22;3085;49.444;11.054;2023-05-31T00:40:26;17.10;76.70
6110;DHT22;3085;49.444;11.054;2023-05-31T00:42:53;17.10;76.60
6110;DHT22;3085;49.444;11.054;2023-05-31T00:45:20;16.90;76.60
6110;DHT22;3085;49.444;11.054;2023-05-31T00:47:47;17.00;77.30
6110;DHT22;3085;49.444;11.054;2023-05-31T00:50:14;16.80;77.00
6110;DHT22;3085;49.444;11.054;2023-05-31T00:52:43;16.90;77.00
6110;DHT22;3085;49.444;11.054;2023-05-31T00:55:13;16.90;77.20
6110;DHT22;3085;49.444;11.054;2023-05-31T00:57:41;16.90;77.60
6110;DHT22;3085;49.444;11.054;2023-05-31T01:00:09;16.90;77.20
6110;DHT22;3085;49.444;11.054;2023-05-31T01:02:37;16.80;77.60
6110;DHT22;3085;49.444;11.054;2023-05-31T01:05:07;16.80;77.20
6110;DHT22;3085;49.444;11.054;2023-05-31T01:07:35;16.80;77.40
6110;DHT22;3085;49.444;11.054;2023-05-31T01:10:02;16.60;77.10
6110;DHT22;3085;49.444;11.054;2023-05-31T01:12:40;16.80;78.20
6110;DHT22;3085;49.444;11.054;2023-05-31T01:15:12;16.70;77.70
6110;DHT22;3085;49.444;11.054;2023-05-31T01:17:46;16.80;77.80
6110;DHT22;3085;49.444;11.054;2023-05-31T01:20:17;16.60;77.60
6110;DHT22;3085;49.444;11.054;2023-05-31T01:23:11;16.70;77.90
6110;DHT22;3085;49.444;11.054;2023-05-31T01:28:41;16.60;78.00
6110;DHT22;3085;49.444;11.054;2023-05-31T01:31:09;16.70;78.00
6110;DHT22;3085;49.444;11.054;2023-05-31T01:33:39;16.60;78.30
6110;DHT22;3085;49.444;11.054;2023-05-31T01:36:06;16.50;78.30
6110;DHT22;3085;49.444;11.054;2023-05-31T01:38:33;16.50;78.50
6110;DHT22;3085;49.444;11.054;2023-05-31T01:41:01;16.50;78.20
6110;DHT22;3085;49.444;11.054;2023-05-31T01:43:32;16.30;78.40
6110;DHT22;3085;49.444;11.054;2023-05-31T01:46:02;16.30;78.70
6110;DHT22;3085;49.444;11.054;2023-05-31T01:48:30;16.20;78.90
6110;DHT22;3085;49.444;11.054;2023-05-31T01:50:58;16.10;79.10
6110;DHT22;3085;49.444;11.054;2023-05-31T01:53:25;15.90;79.20
6110;DHT22;3085;49.444;11.054;2023-05-31T01:55:53;15.90;80.00
6110;DHT22;3085;49.444;11.054;2023-05-31T01:58:22;15.80;80.10
6110;DHT22;3085;49.444;11.054;2023-05-31T02:00:49;15.80;79.70
6110;DHT22;3085;49.444;11.054;2023-05-31T02:03:20;15.90;81.30
6110;DHT22;3085;49.444;11.054;2023-05-31T02:05:57;17.30;81.50
6110;DHT22;3085;49.444;11.054;2023-05-31T02:08:24;15.70;80.50
6110;DHT22;3085;49.444;11.054;2023-05-31T02:10:51;15.60;81.20
6110;DHT22;3085;49.444;11.054;2023-05-31T02:13:19;15.40;80.60
6110;DHT22;3085;49.444;11.054;2023-05-31T02:15:46;15.60;82.10
6110;DHT22;3085;49.444;11.054;2023-05-31T02:18:13;15.50;81.80
6110;DHT22;3085;49.444;11.054;2023-05-31T02:20:43;15.50;81.50
6110;DHT22;3085;49.444;11.054;2023-05-31T02:23:11;15.60;81.60
6110;DHT22;3085;49.444;11.054;2023-05-31T02:25:38;15.50;81.30
6110;DHT22;3085;49.444;11.054;2023-05-31T02:28:05;15.60;81.10
6110;DHT22;3085;49.444;11.054;2023-05-31T02:30:32;15.30;81.50
6110;DHT22;3085;49.444;11.054;2023-05-31T02:33:01;15.50;81.10
6110;DHT22;3085;49.444;11.054;2023-05-31T02:35:29;15.40;81.10
6110;DHT22;3085;49.444;11.054;2023-05-31T02:37:57;15.20;81.50
6110;DHT22;3085;49.444;11.054;2023-05-31T02:40:27;15.40;81.20
6110;DHT22;3085;49.444;11.054;2023-05-31T02:42:54;15.40;81.40
6110;DHT22;3085;49.444;11.054;2023-05-31T02:45:21;15.40;81.30
6110;DHT22;3085;49.444;11.054;2023-05-31T02:47:49;15.20;81.80
6110;DHT22;3085;49.444;11.054;2023-05-31T02:50:16;15.20;81.90
6110;DHT22;3085;49.444;11.054;2023-05-31T02:52:46;15.40;81.70
6110;DHT22;3085;49.444;11.054;2023-05-31T02:55:14;15.30;81.60
6110;DHT22;3085;49.444;11.054;2023-05-31T02:57:41;15.10;81.80
6110;DHT22;3085;49.444;11.054;2023-05-31T03:00:09;15.10;82.00
6110;DHT22;3085;49.444;11.054;2023-05-31T03:02:38;15.20;82.10
6110;DHT22;3085;49.444;11.054;2023-05-31T03:05:06;15.20;83.10
6110;DHT22;3085;49.444;11.054;2023-05-31T03:07:34;15.10;82.40
6110;DHT22;3085;49.444;11.054;2023-05-31T03:10:01;15.00;82.70
6110;DHT22;3085;49.444;11.054;2023-05-31T03:12:31;15.20;82.20
6110;DHT22;3085;49.444;11.054;2023-05-31T03:14:57;15.20;82.40
6110;DHT22;3085;49.444;11.054;2023-05-31T03:17:26;15.30;82.50
6110;DHT22;3085;49.444;11.054;2023-05-31T03:19:53;15.20;82.50
6110;DHT22;3085;49.444;11.054;2023-05-31T03:22:20;15.30;82.70
6110;DHT22;3085;49.444;11.054;2023-05-31T03:24:48;15.20;82.70
6110;DHT22;3085;49.444;11.054;2023-05-31T03:27:15;15.00;83.10
6110;DHT22;3085;49.444;11.054;2023-05-31T03:29:43;15.10;83.20
6110;DHT22;3085;49.444;11.054;2023-05-31T03:32:10;15.10;83.30
6110;DHT22;3085;49.444;11.054;2023-05-31T03:34:37;15.00;83.50
6110;DHT22;3085;49.444;11.054;2023-05-31T03:37:04;14.90;83.70
6110;DHT22;3085;49.444;11.054;2023-05-31T03:39:31;14.70;84.20
6110;DHT22;3085;49.444;11.054;2023-05-31T03:42:00;14.80;84.20
6110;DHT22;3085;49.444;11.054;2023-05-31T03:44:27;15.10;84.40
6110;DHT22;3085;49.444;11.054;2023-05-31T03:46:58;14.90;84.10
6110;DHT22;3085;49.444;11.054;2023-05-31T03:49:25;14.80;84.20
6110;DHT22;3085;49.444;11.054;2023-05-31T03:51:52;14.90;84.20
6110;DHT22;3085;49.444;11.054;2023-05-31T03:54:19;15.00;84.30
6110;DHT22;3085;49.444;11.054;2023-05-31T03:56:46;14.90;84.20
6110;DHT22;3085;49.444;11.054;2023-05-31T03:59:12;14.80;84.70
6110;DHT22;3085;49.444;11.054;2023-05-31T04:01:39;14.90;84.50
6110;DHT22;3085;49.444;11.054;2023-05-31T04:04:08;14.70;84.50
6110;DHT22;3085;49.444;11.054;2023-05-31T04:06:35;14.60;85.00
6110;DHT22;3085;49.444;11.054;2023-05-31T04:09:02;14.70;85.00
6110;DHT22;3085;49.444;11.054;2023-05-31T04:11:30;14.70;85.10
6110;DHT22;3085;49.444;11.054;2023-05-31T04:13:56;14.60;85.00
6110;DHT22;3085;49.444;11.054;2023-05-31T04:16:23;14.70;85.30
6110;DHT22;3085;49.444;11.054;2023-05-31T04:18:51;14.80;85.00
6110;DHT22;3085;49.444;11.054;2023-05-31T04:21:19;14.80;85.20
6110;DHT22;3085;49.444;11.054;2023-05-31T04:23:46;14.80;85.40
6110;DHT22;3085;49.444;11.054;2023-05-31T04:26:13;14.80;85.70
6110;DHT22;3085;49.444;11.054;2023-05-31T04:28:42;14.70;85.50
6110;DHT22;3085;49.444;11.054;2023-05-31T04:31:09;14.80;85.60
6110;DHT22;3085;49.444;11.054;2023-05-31T04:33:37;14.80;85.70
6110;DHT22;3085;49.444;11.054;2023-05-31T04:36:04;15.00;85.80
6110;DHT22;3085;49.444;11.054;2023-05-31T04:38:35;14.90;85.80
6110;DHT22;3085;49.444;11.054;2023-05-31T04:41:02;14.90;85.30
6110;DHT22;3085;49.444;11.054;2023-05-31T04:43:30;14.90;85.50
6110;DHT22;3085;49.444;11.054;2023-05-31T04:45:57;14.80;86.10
6110;DHT22;3085;49.444;11.054;2023-05-31T04:48:26;15.00;86.30
6110;DHT22;3085;49.444;11.054;2023-05-31T04:50:53;15.00;85.80
6110;DHT22;3085;49.444;11.054;2023-05-31T04:53:21;15.10;85.80
6110;DHT22;3085;49.444;11.054;2023-05-31T04:55:49;15.20;86.00
6110;DHT22;3085;49.444;11.054;2023-05-31T04:58:17;15.10;86.00
6110;DHT22;3085;49.444;11.054;2023-05-31T05:00:45;15.20;86.00
6110;DHT22;3085;49.444;11.054;2023-05-31T05:03:12;15.10;86.30
6110;DHT22;3085;49.444;11.054;2023-05-31T05:05:39;15.30;86.20
6110;DHT22;3085;49.444;11.054;2023-05-31T05:08:06;15.20;86.30
6110;DHT22;3085;49.444;11.054;2023-05-31T05:10:33;15.10;86.20
6110;DHT22;3085;49.444;11.054;2023-05-31T05:13:01;15.10;86.80
6110;DHT22;3085;49.444;11.054;2023-05-31T05:15:28;15.10;86.90
6110;DHT22;3085;49.444;11.054;2023-05-31T05:17:55;15.20;87.00
6110;DHT22;3085;49.444;11.054;2023-05-31T05:20:22;15.20;86.90
6110;DHT22;3085;49.444;11.054;2023-05-31T05:22:53;15.30;87.10
6110;DHT22;3085;49.444;11.054;2023-05-31T05:25:23;15.30;87.00
6110;DHT22;3085;49.444;11.054;2023-05-31T05:27:50;15.40;87.20
6110;DHT22;3085;49.444;11.054;2023-05-31T05:30:19;15.30;87.00
6110;DHT22;3085;49.444;11.054;2023-05-31T05:32:48;15.30;87.10
6110;DHT22;3085;49.444;11.054;2023-05-31T05:35:15;15.40;86.90
6110;DHT22;3085;49.444;11.054;2023-05-31T05:37:42;15.50;87.50
6110;DHT22;3085;49.444;11.054;2023-05-31T05:40:12;15.80;87.60
6110;DHT22;3085;49.444;11.054;2023-05-31T05:42:39;15.90;87.50
6110;DHT22;3085;49.444;11.054;2023-05-31T05:45:08;15.80;86.80
6110;DHT22;3085;49.444;11.054;2023-05-31T05:47:36;15.90;86.80
6110;DHT22;3085;49.444;11.054;2023-05-31T05:50:04;16.00;86.90
6110;DHT22;3085;49.444;11.054;2023-05-31T05:52:31;15.90;86.80
6110;DHT22;3085;49.444;11.054;2023-05-31T05:55:01;16.00;87.10
6110;DHT22;3085;49.444;11.054;2023-05-31T05:57:28;16.10;87.30
6110;DHT22;3085;49.444;11.054;2023-05-31T05:59:56;16.20;87.50
6110;DHT22;3085;49.444;11.054;2023-05-31T06:02:23;16.40;87.20
6110;DHT22;3085;49.444;11.054;2023-05-31T06:04:51;16.50;87.90
6110;DHT22;3085;49.444;11.054;2023-05-31T06:07:18;16.60;87.30
6110;DHT22;3085;49.444;11.054;2023-05-31T06:09:46;16.70;87.00
6110;DHT22;3085;49.444;11.054;2023-05-31T06:12:13;16.70;87.20
6110;DHT22;3085;49.444;11.054;2023-05-31T06:14:40;16.80;86.70
6110;DHT22;3085;49.444;11.054;2023-05-31T06:17:08;16.80;85.80
6110;DHT22;3085;49.444;11.054;2023-05-31T06:19:35;16.90;85.90
6110;DHT22;3085;49.444;11.054;2023-05-31T06:22:04;17.00;86.50
6110;DHT22;3085;49.444;11.054;2023-05-31T06:24:31;17.10;85.90
6110;DHT22;3085;49.444;11.054;2023-05-31T06:26:58;17.30;86.80
6110;DHT22;3085;49.444;11.054;2023-05-31T06:29:27;17.40;85.90
6110;DHT22;3085;49.444;11.054;2023-05-31T06:31:54;17.50;86.00
6110;DHT22;3085;49.444;11.054;2023-05-31T06:34:23;17.50;85.90
6110;DHT22;3085;49.444;11.054;2023-05-31T06:36:50;17.50;86.00
6110;DHT22;3085;49.444;11.054;2023-05-31T06:39:18;16.40;84.40
6110;DHT22;3085;49.444;11.054;2023-05-31T06:41:45;17.70;85.90
6110;DHT22;3085;49.444;11.054;2023-05-31T06:44:13;17.80;85.70
6110;DHT22;3085;49.444;11.054;2023-05-31T06:46:43;17.90;85.20
6110;DHT22;3085;49.444;11.054;2023-05-31T06:49:10;17.80;85.20
6110;DHT22;3085;49.444;11.054;2023-05-31T06:51:37;17.90;84.80
6110;DHT22;3085;49.444;11.054;2023-05-31T06:54:04;18.00;84.60
6110;DHT22;3085;49.444;11.054;2023-05-31T06:56:33;18.20;85.00
6110;DHT22;3085;49.444;11.054;2023-05-31T06:59:00;18.20;84.60
6110;DHT22;3085;49.444;11.054;2023-05-31T07:01:27;18.20;84.10
6110;DHT22;3085;49.444;11.054;2023-05-31T07:03:54;18.30;84.50
6110;DHT22;3085;49.444;11.054;2023-05-31T07:06:21;18.30;84.30
6110;DHT22;3085;49.444;11.054;2023-05-31T07:08:48;18.40;83.50
6110;DHT22;3085;49.444;11.054;2023-05-31T07:11:15;18.40;83.30
6110;DHT22;3085;49.444;11.054;2023-05-31T07:13:43;18.50;83.50
6110;DHT22;3085;49.444;11.054;2023-05-31T07:16:10;18.60;83.80
6110;DHT22;3085;49.444;11.054;2023-05-31T07:18:37;18.70;83.30
6110;DHT22;3085;49.444;11.054;2023-05-31T07:21:04;18.80;83.40
6110;DHT22;3085;49.444;11.054;2023-05-31T07:23:33;18.90;83.00
6110;DHT22;3085;49.444;11.054;2023-05-31T07:26:00;18.90;82.30
6110;DHT22;3085;49.444;11.054;2023-05-31T07:28:27;19.10;82.50
6110;DHT22;3085;49.444;11.054;2023-05-31T07:30:56;19.10;81.80
6110;DHT22;3085;49.444;11.054;2023-05-31T07:33:23;19.20;81.10
6110;DHT22;3085;49.444;11.054;2023-05-31T07:35:49;19.30;80.70
6110;DHT22;3085;49.444;11.054;2023-05-31T07:38:16;19.30;81.60
6110;DHT22;3085;49.444;11.054;2023-05-31T07:40:43;19.40;81.10
6110;DHT22;3085;49.444;11.054;2023-05-31T07:43:10;19.50;80.30
6110;DHT22;3085;49.444;11.054;2023-05-31T07:45:39;19.60;79.40
6110;DHT22;3085;49.444;11.054;2023-05-31T07:48:07;19.60;77.80
6110;DHT22;3085;49.444;11.054;2023-05-31T07:50:34;19.70;77.70
6110;DHT22;3085;49.444;11.054;2023-05-31T07:53:01;19.70;77.30
6110;DHT22;3085;49.444;11.054;2023-05-31T07:55:31;19.70;76.60
6110;DHT22;3085;49.444;11.054;2023-05-31T07:57:58;19.70;75.90
6110;DHT22;3085;49.444;11.054;2023-05-31T08:00:25;19.80;76.20
6110;DHT22;3085;49.444;11.054;2023-05-31T08:02:52;19.80;75.90
6110;DHT22;3085;49.444;11.054;2023-05-31T08:05:20;19.90;77.20
6110;DHT22;3085;49.444;11.054;2023-05-31T08:07:47;20.00;76.90
6110;DHT22;3085;49.444;11.054;2023-05-31T08:10:14;20.00;75.80
6110;DHT22;3085;49.444;11.054;2023-05-31T08:12:42;20.00;75.50
6110;DHT22;3085;49.444;11.054;2023-05-31T08:15:09;20.10;76.20
6110;DHT22;3085;49.444;11.054;2023-05-31T08:17:37;20.20;76.50
6110;DHT22;3085;49.444;11.054;2023-05-31T08:20:05;20.20;75.40
6110;DHT22;3085;49.444;11.054;2023-05-31T08:22:33;20.20;75.50
6110;DHT22;3085;49.444;11.054;2023-05-31T08:25:01;20.20;76.10
6110;DHT22;3085;49.444;11.054;2023-05-31T08:27:28;20.30;75.80
6110;DHT22;3085;49.444;11.054;2023-05-31T08:29:54;20.30;76.10
6110;DHT22;3085;49.444;11.054;2023-05-31T08:32:21;20.40;76.30
6110;DHT22;3085;49.444;11.054;2023-05-31T08:34:48;20.50;75.60
6110;DHT22;3085;49.444;11.054;2023-05-31T08:37:15;20.50;75.00
6110;DHT22;3085;49.444;11.054;2023-05-31T08:39:44;20.60;75.30
6110;DHT22;3085;49.444;11.054;2023-05-31T08:42:15;20.60;74.70
6110;DHT22;3085;49.444;11.054;2023-05-31T08:44:43;20.60;74.40
6110;DHT22;3085;49.444;11.054;2023-05-31T08:47:14;20.70;75.40
6110;DHT22;3085;49.444;11.054;2023-05-31T08:49:44;20.60;74.20
6110;DHT22;3085;49.444;11.054;2023-05-31T08:52:12;20.70;73.60
6110;DHT22;3085;49.444;11.054;2023-05-31T08:54:39;20.70;73.30
6110;DHT22;3085;49.444;11.054;2023-05-31T08:57:10;20.80;74.10
6110;DHT22;3085;49.444;11.054;2023-05-31T08:59:37;20.90;73.50
6110;DHT22;3085;49.444;11.054;2023-05-31T09:02:07;20.90;73.20
6110;DHT22;3085;49.444;11.054;2023-05-31T09:04:35;20.90;72.70
6110;DHT22;3085;49.444;11.054;2023-05-31T09:07:03;21.00;72.50
6110;DHT22;3085;49.444;11.054;2023-05-31T09:09:30;21.00;71.90
6110;DHT22;3085;49.444;11.054;2023-05-31T09:11:57;21.10;72.30
6110;DHT22;3085;49.444;11.054;2023-05-31T09:14:25;21.20;71.00
6110;DHT22;3085;49.444;11.054;2023-05-31T09:16:52;21.30;71.50
6110;DHT22;3085;49.444;11.054;2023-05-31T09:19:19;21.40;71.00
6110;DHT22;3085;49.444;11.054;2023-05-31T09:21:46;21.40;70.30
6110;DHT22;3085;49.444;11.054;2023-05-31T09:24:13;21.30;69.90
6110;DHT22;3085;49.444;11.054;2023-05-31T09:26:45;21.30;69.20
6110;DHT22;3085;49.444;11.054;2023-05-31T09:29:13;21.20;69.30
6110;DHT22;3085;49.444;11.054;2023-05-31T09:31:43;21.30;70.00
6110;DHT22;3085;49.444;11.054;2023-05-31T09:34:23;21.40;68.30
6110;DHT22;3085;49.444;11.054;2023-05-31T09:36:51;21.50;67.80
6110;DHT22;3085;49.444;11.054;2023-05-31T09:39:18;21.60;68.80
6110;DHT22;3085;49.444;11.054;2023-05-31T09:41:50;21.70;70.50
6110;DHT22;3085;49.444;11.054;2023-05-31T09:44:17;21.60;71.00
6110;DHT22;3085;49.444;11.054;2023-05-31T09:46:46;21.60;71.80
6110;DHT22;3085;49.444;11.054;2023-05-31T09:49:13;21.70;72.20
6110;DHT22;3085;49.444;11.054;2023-05-31T09:51:49;21.80;72.30
6110;DHT22;3085;49.444;11.054;2023-05-31T09:54:16;21.90;72.10
6110;DHT22;3085;49.444;11.054;2023-05-31T09:56:48;22.00;71.30
6110;DHT22;3085;49.444;11.054;2023-05-31T09:59:15;21.90;70.60
6110;DHT22;3085;49.444;11.054;2023-05-31T10:01:43;21.80;70.90
6110;DHT22;3085;49.444;11.054;2023-05-31T10:04:12;21.90;71.10
6110;DHT22;3085;49.444;11.054;2023-05-31T10:06:39;21.90;70.90
6110;DHT22;3085;49.444;11.054;2023-05-31T10:09:07;21.80;69.70
6110;DHT22;3085;49.444;11.054;2023-05-31T10:11:35;21.90;69.50
6110;DHT22;3085;49.444;11.054;2023-05-31T10:14:05;21.90;69.00
6110;DHT22;3085;49.444;11.054;2023-05-31T10:16:38;22.00;69.40
6110;DHT22;3085;49.444;11.054;2023-05-31T10:19:09;22.10;71.20
6110;DHT22;3085;49.444;11.054;2023-05-31T10:21:42;22.00;70.00
6110;DHT22;3085;49.444;11.054;2023-05-31T10:24:16;22.10;71.70
6110;DHT22;3085;49.444;11.054;2023-05-31T10:26:49;22.20;70.50
6110;DHT22;3085;49.444;11.054;2023-05-31T10:29:23;22.40;70.90
6110;DHT22;3085;49.444;11.054;2023-05-31T10:31:51;22.50;70.60
6110;DHT22;3085;49.444;11.054;2023-05-31T10:34:22;22.60;70.30
6110;DHT22;3085;49.444;11.054;2023-05-31T10:36:51;22.60;70.00
6110;DHT22;3085;49.444;11.054;2023-05-31T10:39:25;22.60;68.80
6110;DHT22;3085;49.444;11.054;2023-05-31T10:41:59;22.40;68.00
6110;DHT22;3085;49.444;11.054;2023-05-31T10:44:36;22.60;68.20
6110;DHT22;3085;49.444;11.054;2023-05-31T10:47:07;22.60;65.50
6110;DHT22;3085;49.444;11.054;2023-05-31T10:49:36;22.80;68.00
6110;DHT22;3085;49.444;11.054;2023-05-31T10:52:06;22.70;65.00
6110;DHT22;3085;49.444;11.054;2023-05-31T10:54:35;22.90;67.00
6110;DHT22;3085;49.444;11.054;2023-05-31T10:57:03;23.00;68.10
6110;DHT22;3085;49.444;11.054;2023-05-31T10:59:40;23.00;67.80
6110;DHT22;3085;49.444;11.054;2023-05-31T11:02:08;23.10;67.80
6110;DHT22;3085;49.444;11.054;2023-05-31T11:04:36;23.20;68.50
6110;DHT22;3085;49.444;11.054;2023-05-31T11:07:15;23.20;67.20
6110;DHT22;3085;49.444;11.054;2023-05-31T11:09:55;23.30;67.50
6110;DHT22;3085;49.444;11.054;2023-05-31T11:12:32;23.20;64.30
6110;DHT22;3085;49.444;11.054;2023-05-31T11:15:00;23.30;64.00
6110;DHT22;3085;49.444;11.054;2023-05-31T11:17:29;23.30;64.20
6110;DHT22;3085;49.444;11.054;2023-05-31T11:19:56;23.40;64.20
6110;DHT22;3085;49.444;11.054;2023-05-31T11:22:28;23.50;64.20
6110;DHT22;3085;49.444;11.054;2023-05-31T11:24:56;23.40;63.30
6110;DHT22;3085;49.444;11.054;2023-05-31T11:27:33;23.30;64.00
6110;DHT22;3085;49.444;11.054;2023-05-31T11:30:01;23.40;63.60
6110;DHT22;3085;49.444;11.054;2023-05-31T11:32:54;23.40;62.60
6110;DHT22;3085;49.444;11.054;2023-05-31T11:35:22;23.40;62.90
6110;DHT22;3085;49.444;11.054;2023-05-31T11:38:08;23.60;63.00
6110;DHT22;3085;49.444;11.054;2023-05-31T11:40:35;23.80;62.90
6110;DHT22;3085;49.444;11.054;2023-05-31T11:43:04;23.90;61.40
6110;DHT22;3085;49.444;11.054;2023-05-31T11:45:33;24.70;62.60
6110;DHT22;3085;49.444;11.054;2023-05-31T11:48:16;23.80;62.20
6110;DHT22;3085;49.444;11.054;2023-05-31T11:50:44;23.80;62.40
6110;DHT22;3085;49.444;11.054;2023-05-31T11:53:13;23.80;63.60
6110;DHT22;3085;49.444;11.054;2023-05-31T11:55:45;23.70;63.50
6110;DHT22;3085;49.444;11.054;2023-05-31T11:58:14;23.60;63.70
6110;DHT22;3085;49.444;11.054;2023-05-31T12:00:44;23.70;64.00
6110;DHT22;3085;49.444;11.054;2023-05-31T12:03:14;23.80;66.60
6110;DHT22;3085;49.444;11.054;2023-05-31T12:05:43;23.90;66.20
6110;DHT22;3085;49.444;11.054;2023-05-31T12:08:12;23.90;65.60
6110;DHT22;3085;49.444;11.054;2023-05-31T12:10:40;24.00;67.40
6110;DHT22;3085;49.444;11.054;2023-05-31T12:13:08;24.20;65.90
6110;DHT22;3085;49.444;11.054;2023-05-31T12:15:36;24.30;66.70
6110;DHT22;3085;49.444;11.054;2023-05-31T12:18:04;24.30;65.70
6110;DHT22;3085;49.444;11.054;2023-05-31T12:20:31;24.30;66.90
6110;DHT22;3085;49.444;11.054;2023-05-31T12:23:13;24.20;65.20
6110;DHT22;3085;49.444;11.054;2023-05-31T12:25:44;24.20;66.00
6110;DHT22;3085;49.444;11.054;2023-05-31T12:28:12;24.20;66.30
6110;DHT22;3085;49.444;11.054;2023-05-31T12:30:43;24.40;67.20
6110;DHT22;3085;49.444;11.054;2023-05-31T12:33:11;24.40;68.70
6110;DHT22;3085;49.444;11.054;2023-05-31T12:35:42;24.30;67.00
6110;DHT22;3085;49.444;11.054;2023-05-31T12:38:09;24.40;66.80
6110;DHT22;3085;49.444;11.054;2023-05-31T12:40:42;24.40;67.00
6110;DHT22;3085;49.444;11.054;2023-05-31T12:43:11;24.50;66.00
6110;DHT22;3085;49.444;11.054;2023-05-31T12:45:40;24.50;65.50
6110;DHT22;3085;49.444;11.054;2023-05-31T12:48:09;24.50;66.30
6110;DHT22;3085;49.444;11.054;2023-05-31T12:50:37;24.60;66.40
6110;DHT22;3085;49.444;11.054;2023-05-31T12:53:10;24.60;61.80
6110;DHT22;3085;49.444;11.054;2023-05-31T12:55:40;24.50;59.40
6110;DHT22;3085;49.444;11.054;2023-05-31T12:58:08;24.70;60.70
6110;DHT22;3085;49.444;11.054;2023-05-31T13:00:44;24.80;60.50
6110;DHT22;3085;49.444;11.054;2023-05-31T13:03:11;24.80;62.80
6110;DHT22;3085;49.444;11.054;2023-05-31T13:05:40;24.80;60.50
6110;DHT22;3085;49.444;11.054;2023-05-31T13:08:07;24.90;61.30
6110;DHT22;3085;49.444;11.054;2023-05-31T13:10:34;25.00;61.20
6110;DHT22;3085;49.444;11.054;2023-05-31T13:13:03;25.00;62.00
6110;DHT22;3085;49.444;11.054;2023-05-31T13:15:30;24.80;59.40
6110;DHT22;3085;49.444;11.054;2023-05-31T13:17:57;24.90;59.80
6110;DHT22;3085;49.444;11.054;2023-05-31T13:20:24;24.90;59.40
6110;DHT22;3085;49.444;11.054;2023-05-31T13:22:51;25.00;58.90
6110;DHT22;3085;49.444;11.054;2023-05-31T13:25:18;25.00;59.40
6110;DHT22;3085;49.444;11.054;2023-05-31T13:27:45;25.00;58.10
6110;DHT22;3085;49.444;11.054;2023-05-31T13:30:14;25.00;58.10
6110;DHT22;3085;49.444;11.054;2023-05-31T13:32:41;25.10;59.70
6110;DHT22;3085;49.444;11.054;2023-05-31T13:35:09;25.20;58.50
6110;DHT22;3085;49.444;11.054;2023-05-31T13:37:37;25.30;56.20
6110;DHT22;3085;49.444;11.054;2023-05-31T13:40:05;25.40;57.40
6110;DHT22;3085;49.444;11.054;2023-05-31T13:42:33;25.40;57.40
6110;DHT22;3085;49.444;11.054;2023-05-31T13:45:00;25.40;57.70
6110;DHT22;3085;49.444;11.054;2023-05-31T13:47:28;25.70;60.00
6110;DHT22;3085;49.444;11.054;2023-05-31T13:49:55;25.70;60.20
6110;DHT22;3085;49.444;11.054;2023-05-31T13:52:23;25.70;60.40
6110;DHT22;3085;49.444;11.054;2023-05-31T13:54:50;25.70;59.30
6110;DHT22;3085;49.444;11.054;2023-05-31T13:57:17;25.70;59.20
6110;DHT22;3085;49.444;11.054;2023-05-31T13:59:43;25.80;58.30
6110;DHT22;3085;49.444;11.054;2023-05-31T14:02:10;25.80;58.20
6110;DHT22;3085;49.444;11.054;2023-05-31T14:04:39;25.60;57.50
6110;DHT22;3085;49.444;11.054;2023-05-31T14:07:06;25.60;58.10
6110;DHT22;3085;49.444;11.054;2023-05-31T14:09:33;25.60;58.00
6110;DHT22;3085;49.444;11.054;2023-05-31T14:12:00;25.80;58.50
6110;DHT22;3085;49.444;11.054;2023-05-31T14:14:27;26.00;59.70
6110;DHT22;3085;49.444;11.054;2023-05-31T14:16:53;25.80;56.50
6110;DHT22;3085;49.444;11.054;2023-05-31T14:19:20;25.90;57.00
6110;DHT22;3085;49.444;11.054;2023-05-31T14:21:49;25.80;57.20
6110;DHT22;3085;49.444;11.054;2023-05-31T14:24:16;25.80;56.20
6110;DHT22;3085;49.444;11.054;2023-05-31T14:26:43;25.70;55.50
6110;DHT22;3085;49.444;11.054;2023-05-31T14:29:10;25.80;55.50
6110;DHT22;3085;49.444;11.054;2023-05-31T14:31:37;25.70;55.20
6110;DHT22;3085;49.444;11.054;2023-05-31T14:34:04;25.90;57.50
6110;DHT22;3085;49.444;11.054;2023-05-31T14:36:30;26.00;55.50
6110;DHT22;3085;49.444;11.054;2023-05-31T14:38:59;26.10;55.70
6110;DHT22;3085;49.444;11.054;2023-05-31T14:41:26;26.10;56.30
6110;DHT22;3085;49.444;11.054;2023-05-31T14:43:53;26.20;54.70
6110;DHT22;3085;49.444;11.054;2023-05-31T14:46:20;26.40;55.80
6110;DHT22;3085;49.444;11.054;2023-05-31T14:48:47;26.30;55.60
6110;DHT22;3085;49.444;11.054;2023-05-31T14:51:13;26.30;55.50
6110;DHT22;3085;49.444;11.054;2023-05-31T14:53:40;26.40;56.40
6110;DHT22;3085;49.444;11.054;2023-05-31T14:56:09;26.50;55.80
6110;DHT22;3085;49.444;11.054;2023-05-31T14:58:36;26.60;54.60
6110;DHT22;3085;49.444;11.054;2023-05-31T15:01:17;26.60;55.40
6110;DHT22;3085;49.444;11.054;2023-05-31T15:03:45;26.70;55.10
6110;DHT22;3085;49.444;11.054;2023-05-31T15:06:12;26.70;56.50
6110;DHT22;3085;49.444;11.054;2023-05-31T15:08:39;26.60;55.70
6110;DHT22;3085;49.444;11.054;2023-05-31T15:11:06;26.60;56.60
6110;DHT22;3085;49.444;11.054;2023-05-31T15:13:34;26.70;56.70
6110;DHT22;3085;49.444;11.054;2023-05-31T15:16:01;26.50;55.70
6110;DHT22;3085;49.444;11.054;2023-05-31T15:18:28;26.60;56.00
6110;DHT22;3085;49.444;11.054;2023-05-31T15:20:56;26.50;56.40
6110;DHT22;3085;49.444;11.054;2023-05-31T15:23:23;26.60;58.00
6110;DHT22;3085;49.444;11.054;2023-05-31T15:25:50;26.80;57.90
6110;DHT22;3085;49.444;11.054;2023-05-31T15:28:17;26.90;56.80
6110;DHT22;3085;49.444;11.054;2023-05-31T15:30:45;26.80;57.40
6110;DHT22;3085;49.444;11.054;2023-05-31T15:33:12;26.70;56.20
6110;DHT22;3085;49.444;11.054;2023-05-31T15:35:39;26.60;55.60
6110;DHT22;3085;49.444;11.054;2023-05-31T15:38:06;26.50;54.70
6110;DHT22;3085;49.444;11.054;2023-05-31T15:40:34;26.40;55.10
6110;DHT22;3085;49.444;11.054;2023-05-31T15:43:01;26.50;55.20
6110;DHT22;3085;49.444;11.054;2023-05-31T15:45:28;26.60;56.00
6110;DHT22;3085;49.444;11.054;2023-05-31T15:47:56;26.70;54.50
6110;DHT22;3085;49.444;11.054;2023-05-31T15:50:23;26.30;53.20
6110;DHT22;3085;49.444;11.054;2023-05-31T15:52:50;26.60;55.70
6110;DHT22;3085;49.444;11.054;2023-05-31T15:55:17;26.70;54.80